Desert Lake Discharge




Date Panel Temperature (degC) Canal Conductivity (mS/m) Canal Flow (cfs) Canal Height (ft) Water Temperature (degC) Air Temperature (degF) Water Balance (pH) Canal Conductivity in micro-Siemens (┬ÁS/cm)
02/01/2019 0.00 0.09
02/02/2019 0.01 0.09 5.00
02/03/2019 0.02 0.11 17.00
02/04/2019 0.01 0.11 7.00
02/05/2019 0.02 0.12 21.00
02/06/2019 0.00 0.11 1.00
02/07/2019 -0.01 0.10
02/08/2019 -0.02 0.11
02/09/2019 0.00 0.13
02/10/2019 0.00 0.14 2.00
02/11/2019 0.00 0.13
02/12/2019 0.01 0.14 9.00
02/13/2019 0.02 0.17 24.00
02/14/2019 0.03 0.17 33.00
02/15/2019 0.00 0.16
02/16/2019 -0.01 0.13
02/17/2019 0.01 0.14 9.00
02/18/2019 0.02 0.14 15.00
02/19/2019 0.02 0.18 22.00
02/20/2019 0.05 0.33 52.00
02/21/2019 0.02 0.20 18.00
02/22/2019 0.02 0.19 21.00
02/23/2019 0.01 0.17 13.00
02/24/2019 0.00 0.27 4.00
02/25/2019 0.03 0.26 30.00
02/26/2019 0.02 0.19 23.00
02/27/2019 0.01 0.18 5.00
02/28/2019 0.01 0.17 13.00
Average 0.16
Maximum 0.33
Minimum 0.09
Total Volume (AF) 8.78